Simcoe, North Dakota
Current Conditions -  °F | °C
As of 11:54 PM on Wednesday 22 Oct 2014 (Local Time) from KMOT Reporting Station
Clear Clear  
Wind Chill: 50°   Ceiling: Unl
Heat Index: 50°   Visibility: 10mi
Dew Point: 39°   Wind: 9mph
Humidity: 66%   Direction: 230°SW
Pressure: 29.83"   Gusts: NA
Location:  48.2524°N, 100.783°W
Report Text: KMOT 230454Z AUTO 23008KT 10SM CLR 10/04 A2983 RMK AO2 SLP109 T01000039
Loading
Personal Weather Stations






























Interactive Weather Map
Tropical Storm Tracking
New forecast layout! Learn more

10-Day Weather Forecast

Advertisements
Track Severe Weather on mobile